sensor_id;sensor_type;location;lat;lon;timestamp;pressure;altitude;pressure_sealevel;temperature;humidity
13661;BME280;6903;49.480;11.102;2023-07-30T00:01:00;97428.00;;;19.02;100.00
13661;BME280;6903;49.480;11.102;2023-07-30T00:03:25;97429.19;;;18.99;100.00
13661;BME280;6903;49.480;11.102;2023-07-30T00:05:52;97427.72;;;18.97;100.00
13661;BME280;6903;49.480;11.102;2023-07-30T00:08:18;97426.41;;;18.93;100.00
13661;BME280;6903;49.480;11.102;2023-07-30T00:10:43;97432.97;;;18.90;100.00
13661;BME280;6903;49.480;11.102;2023-07-30T00:13:08;97438.31;;;18.90;100.00
13661;BME280;6903;49.480;11.102;2023-07-30T00:15:33;97436.88;;;18.88;100.00
13661;BME280;6903;49.480;11.102;2023-07-30T00:17:59;97442.81;;;18.90;100.00
13661;BME280;6903;49.480;11.102;2023-07-30T00:20:24;97448.16;;;18.90;100.00
13661;BME280;6903;49.480;11.102;2023-07-30T00:22:49;97454.16;;;18.92;100.00
13661;BME280;6903;49.480;11.102;2023-07-30T00:25:15;97465.13;;;18.97;100.00
13661;BME280;6903;49.480;11.102;2023-07-30T00:27:40;97462.06;;;19.00;100.00
13661;BME280;6903;49.480;11.102;2023-07-30T00:30:06;97464.19;;;19.04;100.00
13661;BME280;6903;49.480;11.102;2023-07-30T00:32:31;97463.63;;;19.09;100.00
13661;BME280;6903;49.480;11.102;2023-07-30T00:34:56;97465.13;;;19.11;100.00
13661;BME280;6903;49.480;11.102;2023-07-30T00:37:22;97464.91;;;19.13;100.00
13661;BME280;6903;49.480;11.102;2023-07-30T00:39:47;97464.91;;;19.13;100.00
13661;BME280;6903;49.480;11.102;2023-07-30T00:42:12;97457.28;;;19.10;100.00
13661;BME280;6903;49.480;11.102;2023-07-30T00:44:38;97460.34;;;19.07;100.00
13661;BME280;6903;49.480;11.102;2023-07-30T00:47:03;97468.91;;;19.02;100.00
13661;BME280;6903;49.480;11.102;2023-07-30T00:49:29;97463.56;;;19.02;100.00
13661;BME280;6903;49.480;11.102;2023-07-30T00:51:55;97468.06;;;19.02;100.00
13661;BME280;6903;49.480;11.102;2023-07-30T00:54:21;97478.75;;;19.02;100.00
13661;BME280;6903;49.480;11.102;2023-07-30T00:56:51;97475.44;;;19.00;100.00
13661;BME280;6903;49.480;11.102;2023-07-30T00:59:17;97474.41;;;19.01;100.00
13661;BME280;6903;49.480;11.102;2023-07-30T01:01:42;97464.75;;;19.00;100.00
13661;BME280;6903;49.480;11.102;2023-07-30T01:04:09;97463.72;;;19.01;100.00
13661;BME280;6903;49.480;11.102;2023-07-30T01:06:35;97464.38;;;19.03;100.00
13661;BME280;6903;49.480;11.102;2023-07-30T01:09:01;97462.72;;;19.02;100.00
13661;BME280;6903;49.480;11.102;2023-07-30T01:11:26;97455.56;;;19.02;100.00
13661;BME280;6903;49.480;11.102;2023-07-30T01:13:52;97460.72;;;19.04;100.00
13661;BME280;6903;49.480;11.102;2023-07-30T01:16:19;97463.56;;;19.02;100.00
13661;BME280;6903;49.480;11.102;2023-07-30T01:18:44;97464.56;;;19.01;100.00
13661;BME280;6903;49.480;11.102;2023-07-30T01:21:11;97460.97;;;18.94;100.00
13661;BME280;6903;49.480;11.102;2023-07-30T01:23:37;97456.94;;;18.84;100.00
13661;BME280;6903;49.480;11.102;2023-07-30T01:26:11;97467.06;;;18.74;100.00
13661;BME280;6903;49.480;11.102;2023-07-30T01:28:44;97467.91;;;18.60;100.00
13661;BME280;6903;49.480;11.102;2023-07-30T01:31:14;97470.19;;;18.48;100.00
13661;BME280;6903;49.480;11.102;2023-07-30T01:33:41;97471.75;;;18.43;100.00
13661;BME280;6903;49.480;11.102;2023-07-30T01:36:08;97469.56;;;18.38;100.00
13661;BME280;6903;49.480;11.102;2023-07-30T01:38:35;97464.41;;;18.36;100.00
13661;BME280;6903;49.480;11.102;2023-07-30T01:41:01;97463.63;;;18.36;100.00
13661;BME280;6903;49.480;11.102;2023-07-30T01:43:26;97456.41;;;18.36;100.00
13661;BME280;6903;49.480;11.102;2023-07-30T01:45:52;97454.59;;;18.37;100.00
13661;BME280;6903;49.480;11.102;2023-07-30T01:48:17;97456.41;;;18.36;100.00
13661;BME280;6903;49.480;11.102;2023-07-30T01:50:42;97458.09;;;18.38;100.00
13661;BME280;6903;49.480;11.102;2023-07-30T01:53:08;97452.75;;;18.38;100.00
13661;BME280;6903;49.480;11.102;2023-07-30T01:55:33;97452.59;;;18.39;100.00
13661;BME280;6903;49.480;11.102;2023-07-30T01:57:58;97447.06;;;18.41;100.00
13661;BME280;6903;49.480;11.102;2023-07-30T02:00:24;97447.06;;;18.41;100.00
13661;BME280;6903;49.480;11.102;2023-07-30T02:02:49;97438.56;;;18.37;100.00
13661;BME280;6903;49.480;11.102;2023-07-30T02:05:14;97439.41;;;18.38;100.00
13661;BME280;6903;49.480;11.102;2023-07-30T02:07:40;97446.75;;;18.35;100.00
13661;BME280;6903;49.480;11.102;2023-07-30T02:10:05;97452.09;;;18.35;100.00
13661;BME280;6903;49.480;11.102;2023-07-30T02:12:31;97451.91;;;18.37;100.00
13661;BME280;6903;49.480;11.102;2023-07-30T02:14:56;97463.09;;;18.41;100.00
13661;BME280;6903;49.480;11.102;2023-07-30T02:17:21;97458.22;;;18.44;100.00
13661;BME280;6903;49.480;11.102;2023-07-30T02:19:47;97446.53;;;18.45;100.00
13661;BME280;6903;49.480;11.102;2023-07-30T02:22:13;97465.69;;;18.49;100.00
13661;BME280;6903;49.480;11.102;2023-07-30T02:24:38;97470.66;;;18.52;100.00
13661;BME280;6903;49.480;11.102;2023-07-30T02:27:04;97469.09;;;18.57;100.00
13661;BME280;6903;49.480;11.102;2023-07-30T02:29:29;97468.91;;;18.59;100.00
13661;BME280;6903;49.480;11.102;2023-07-30T02:31:56;97466.88;;;18.61;100.00
13661;BME280;6903;49.480;11.102;2023-07-30T02:34:21;97470.19;;;18.63;100.00
13661;BME280;6903;49.480;11.102;2023-07-30T02:36:47;97470.84;;;18.65;100.00
13661;BME280;6903;49.480;11.102;2023-07-30T02:39:13;97478.84;;;18.65;100.00
13661;BME280;6903;49.480;11.102;2023-07-30T02:41:38;97479.50;;;18.67;100.00
13661;BME280;6903;49.480;11.102;2023-07-30T02:44:03;97476.00;;;18.66;100.00
13661;BME280;6903;49.480;11.102;2023-07-30T02:46:29;97472.13;;;18.69;100.00
13661;BME280;6903;49.480;11.102;2023-07-30T02:48:54;97474.34;;;18.65;100.00
13661;BME280;6903;49.480;11.102;2023-07-30T02:51:19;97462.09;;;18.71;100.00
13661;BME280;6903;49.480;11.102;2023-07-30T02:53:45;97457.69;;;18.63;100.00
13661;BME280;6903;49.480;11.102;2023-07-30T02:56:10;97459.88;;;18.60;100.00
13661;BME280;6903;49.480;11.102;2023-07-30T02:58:35;97474.88;;;18.61;100.00
13661;BME280;6903;49.480;11.102;2023-07-30T03:01:07;97472.88;;;18.63;100.00
13661;BME280;6903;49.480;11.102;2023-07-30T03:03:33;97480.41;;;18.59;100.00
13661;BME280;6903;49.480;11.102;2023-07-30T03:05:58;97481.63;;;18.57;100.00
13661;BME280;6903;49.480;11.102;2023-07-30T03:08:24;97479.69;;;18.51;100.00
13661;BME280;6903;49.480;11.102;2023-07-30T03:10:49;97487.41;;;18.46;100.00
13661;BME280;6903;49.480;11.102;2023-07-30T03:13:14;97492.66;;;18.39;100.00
13661;BME280;6903;49.480;11.102;2023-07-30T03:15:39;97492.78;;;18.38;100.00
13661;BME280;6903;49.480;11.102;2023-07-30T03:18:05;97499.50;;;18.33;100.00
13661;BME280;6903;49.480;11.102;2023-07-30T03:20:30;97503.38;;;18.31;100.00
13661;BME280;6903;49.480;11.102;2023-07-30T03:22:55;97510.16;;;18.33;100.00
13661;BME280;6903;49.480;11.102;2023-07-30T03:25:21;97507.69;;;18.32;100.00
13661;BME280;6903;49.480;11.102;2023-07-30T03:27:46;97508.53;;;18.32;100.00
13661;BME280;6903;49.480;11.102;2023-07-30T03:30:11;97493.69;;;18.30;100.00
13661;BME280;6903;49.480;11.102;2023-07-30T03:32:37;97499.84;;;18.30;100.00
13661;BME280;6903;49.480;11.102;2023-07-30T03:35:02;97511.25;;;18.24;100.00
13661;BME280;6903;49.480;11.102;2023-07-30T03:37:27;97506.09;;;18.23;100.00
13661;BME280;6903;49.480;11.102;2023-07-30T03:39:53;97507.47;;;18.19;100.00
13661;BME280;6903;49.480;11.102;2023-07-30T03:42:19;97506.19;;;18.15;100.00
13661;BME280;6903;49.480;11.102;2023-07-30T03:44:45;97512.31;;;18.15;100.00
13661;BME280;6903;49.480;11.102;2023-07-30T03:47:10;97516.00;;;18.14;100.00
13661;BME280;6903;49.480;11.102;2023-07-30T03:49:35;97523.34;;;18.12;100.00
13661;BME280;6903;49.480;11.102;2023-07-30T03:52:02;97522.38;;;18.13;100.00
13661;BME280;6903;49.480;11.102;2023-07-30T03:54:27;97530.00;;;18.16;100.00
13661;BME280;6903;49.480;11.102;2023-07-30T03:56:53;97533.16;;;18.20;100.00
13661;BME280;6903;49.480;11.102;2023-07-30T03:59:18;97519.63;;;18.21;100.00
13661;BME280;6903;49.480;11.102;2023-07-30T04:01:43;97525.78;;;18.22;100.00
13661;BME280;6903;49.480;11.102;2023-07-30T04:04:09;97528.44;;;18.22;100.00
13661;BME280;6903;49.480;11.102;2023-07-30T04:06:34;97539.31;;;18.20;100.00
13661;BME280;6903;49.480;11.102;2023-07-30T04:08:59;97529.66;;;18.19;100.00
13661;BME280;6903;49.480;11.102;2023-07-30T04:11:25;97520.00;;;18.18;100.00
13661;BME280;6903;49.480;11.102;2023-07-30T04:13:50;97531.47;;;18.19;100.00
13661;BME280;6903;49.480;11.102;2023-07-30T04:16:15;97533.50;;;18.17;100.00
13661;BME280;6903;49.480;11.102;2023-07-30T04:18:41;97526.69;;;18.14;100.00
13661;BME280;6903;49.480;11.102;2023-07-30T04:21:06;97524.19;;;18.13;100.00
13661;BME280;6903;49.480;11.102;2023-07-30T04:23:31;97528.69;;;18.12;100.00
13661;BME280;6903;49.480;11.102;2023-07-30T04:25:56;97530.19;;;18.15;100.00
13661;BME280;6903;49.480;11.102;2023-07-30T04:28:22;97529.84;;;18.18;100.00
13661;BME280;6903;49.480;11.102;2023-07-30T04:30:47;97536.16;;;18.17;100.00
13661;BME280;6903;49.480;11.102;2023-07-30T04:33:13;97542.34;;;18.17;100.00
13661;BME280;6903;49.480;11.102;2023-07-30T04:35:39;97541.97;;;18.20;100.00
13661;BME280;6903;49.480;11.102;2023-07-30T04:38:05;97543.28;;;18.24;100.00
13661;BME280;6903;49.480;11.102;2023-07-30T04:40:30;97554.88;;;18.31;100.00
13661;BME280;6903;49.480;11.102;2023-07-30T04:42:55;97560.84;;;18.42;100.00
13661;BME280;6903;49.480;11.102;2023-07-30T04:45:21;97554.72;;;18.56;100.00
13661;BME280;6903;49.480;11.102;2023-07-30T04:47:46;97562.22;;;18.75;100.00
13661;BME280;6903;49.480;11.102;2023-07-30T04:50:11;97561.69;;;18.94;100.00
13661;BME280;6903;49.480;11.102;2023-07-30T04:52:37;97567.78;;;19.02;100.00
13661;BME280;6903;49.480;11.102;2023-07-30T04:55:02;97564.28;;;19.02;100.00
13661;BME280;6903;49.480;11.102;2023-07-30T04:57:27;97569.91;;;19.07;100.00
13661;BME280;6903;49.480;11.102;2023-07-30T04:59:53;97569.72;;;19.08;100.00
13661;BME280;6903;49.480;11.102;2023-07-30T05:02:18;97562.34;;;19.10;100.00
13661;BME280;6903;49.480;11.102;2023-07-30T05:04:43;97566.66;;;19.11;100.00
13661;BME280;6903;49.480;11.102;2023-07-30T05:07:09;97560.94;;;19.14;100.00
13661;BME280;6903;49.480;11.102;2023-07-30T05:09:34;97560.88;;;19.37;100.00
13661;BME280;6903;49.480;11.102;2023-07-30T05:11:59;97568.84;;;19.66;100.00
13661;BME280;6903;49.480;11.102;2023-07-30T05:14:25;97565.38;;;19.87;100.00
13661;BME280;6903;49.480;11.102;2023-07-30T05:16:50;97566.38;;;20.00;100.00
13661;BME280;6903;49.480;11.102;2023-07-30T05:19:16;97573.81;;;20.19;100.00
13661;BME280;6903;49.480;11.102;2023-07-30T05:21:41;97577.63;;;20.31;100.00
13661;BME280;6903;49.480;11.102;2023-07-30T05:24:07;97584.25;;;20.35;100.00
13661;BME280;6903;49.480;11.102;2023-07-30T05:26:32;97585.84;;;20.30;100.00
13661;BME280;6903;49.480;11.102;2023-07-30T05:28:58;97587.84;;;20.21;100.00
13661;BME280;6903;49.480;11.102;2023-07-30T05:31:23;97591.25;;;20.15;100.00
13661;BME280;6903;49.480;11.102;2023-07-30T05:33:48;97592.09;;;20.16;100.00
13661;BME280;6903;49.480;11.102;2023-07-30T05:36:13;97595.78;;;20.15;100.00
13661;BME280;6903;49.480;11.102;2023-07-30T05:38:39;97600.66;;;20.11;100.00
13661;BME280;6903;49.480;11.102;2023-07-30T05:41:04;97597.63;;;20.14;100.00
13661;BME280;6903;49.480;11.102;2023-07-30T05:43:29;97601.72;;;20.31;100.00
13661;BME280;6903;49.480;11.102;2023-07-30T05:45:55;97602.53;;;20.53;100.00
13661;BME280;6903;49.480;11.102;2023-07-30T05:48:20;97596.78;;;20.77;100.00
13661;BME280;6903;49.480;11.102;2023-07-30T05:50:45;97587.41;;;20.87;100.00
13661;BME280;6903;49.480;11.102;2023-07-30T05:53:11;97587.16;;;20.82;100.00
13661;BME280;6903;49.480;11.102;2023-07-30T05:55:36;97599.50;;;20.83;100.00
13661;BME280;6903;49.480;11.102;2023-07-30T05:58:01;97599.06;;;21.01;100.00
13661;BME280;6903;49.480;11.102;2023-07-30T06:00:27;97596.22;;;21.43;100.00
13661;BME280;6903;49.480;11.102;2023-07-30T06:02:52;97599.94;;;21.83;100.00
13661;BME280;6903;49.480;11.102;2023-07-30T06:05:17;97581.25;;;22.09;100.00
13661;BME280;6903;49.480;11.102;2023-07-30T06:07:43;97581.47;;;22.14;100.00
13661;BME280;6903;49.480;11.102;2023-07-30T06:10:08;97586.16;;;21.99;100.00
13661;BME280;6903;49.480;11.102;2023-07-30T06:12:33;97589.84;;;21.85;100.00
13661;BME280;6903;49.480;11.102;2023-07-30T06:14:59;97590.25;;;21.82;100.00
13661;BME280;6903;49.480;11.102;2023-07-30T06:17:24;97598.31;;;21.88;100.00
13661;BME280;6903;49.480;11.102;2023-07-30T06:19:49;97604.19;;;22.05;100.00
13661;BME280;6903;49.480;11.102;2023-07-30T06:22:15;97591.38;;;22.20;100.00
13661;BME280;6903;49.480;11.102;2023-07-30T06:24:40;97580.06;;;22.37;100.00
13661;BME280;6903;49.480;11.102;2023-07-30T06:27:05;97568.72;;;22.68;100.00
13661;BME280;6903;49.480;11.102;2023-07-30T06:31:56;97567.88;;;23.26;100.00
13661;BME280;6903;49.480;11.102;2023-07-30T06:34:21;97565.88;;;23.72;100.00
13661;BME280;6903;49.480;11.102;2023-07-30T06:36:47;97570.59;;;24.52;100.00
13661;BME280;6903;49.480;11.102;2023-07-30T06:39:12;97560.84;;;25.50;100.00
13661;BME280;6903;49.480;11.102;2023-07-30T06:41:37;97559.00;;;26.27;100.00
13661;BME280;6903;49.480;11.102;2023-07-30T06:44:03;97549.03;;;26.81;100.00
13661;BME280;6903;49.480;11.102;2023-07-30T06:46:28;97556.22;;;27.10;100.00
13661;BME280;6903;49.480;11.102;2023-07-30T06:48:53;97552.13;;;27.19;100.00
13661;BME280;6903;49.480;11.102;2023-07-30T06:51:19;97559.44;;;27.30;100.00
13661;BME280;6903;49.480;11.102;2023-07-30T06:53:44;97558.59;;;27.06;100.00
13661;BME280;6903;49.480;11.102;2023-07-30T06:56:10;97558.00;;;26.81;100.00
13661;BME280;6903;49.480;11.102;2023-07-30T06:58:35;97565.97;;;26.76;100.00
13661;BME280;6903;49.480;11.102;2023-07-30T07:01:00;97566.03;;;26.58;100.00
13661;BME280;6903;49.480;11.102;2023-07-30T07:03:26;97565.88;;;26.53;100.00
13661;BME280;6903;49.480;11.102;2023-07-30T07:05:55;97563.06;;;26.36;100.00
13661;BME280;6903;49.480;11.102;2023-07-30T07:08:21;97562.78;;;26.26;100.00
13661;BME280;6903;49.480;11.102;2023-07-30T07:10:47;97566.09;;;26.28;100.00
13661;BME280;6903;49.480;11.102;2023-07-30T07:13:12;97569.63;;;26.40;100.00
13661;BME280;6903;49.480;11.102;2023-07-30T07:15:44;97570.22;;;26.42;100.00
13661;BME280;6903;49.480;11.102;2023-07-30T07:18:09;97578.34;;;26.42;100.00
13661;BME280;6903;49.480;11.102;2023-07-30T07:20:36;97572.34;;;26.40;100.00
13661;BME280;6903;49.480;11.102;2023-07-30T07:23:01;97586.97;;;26.21;100.00
13661;BME280;6903;49.480;11.102;2023-07-30T07:25:26;97588.56;;;26.11;100.00
13661;BME280;6903;49.480;11.102;2023-07-30T07:27:52;97589.25;;;26.06;100.00
13661;BME280;6903;49.480;11.102;2023-07-30T07:30:17;97586.53;;;26.06;100.00
13661;BME280;6903;49.480;11.102;2023-07-30T07:32:42;97578.56;;;26.11;100.00
13661;BME280;6903;49.480;11.102;2023-07-30T07:35:08;97565.38;;;26.03;100.00
13661;BME280;6903;49.480;11.102;2023-07-30T07:37:34;97569.44;;;25.94;100.00
13661;BME280;6903;49.480;11.102;2023-07-30T07:39:59;97566.50;;;25.96;100.00
13661;BME280;6903;49.480;11.102;2023-07-30T07:42:25;97564.56;;;26.03;100.00
13661;BME280;6903;49.480;11.102;2023-07-30T07:44:50;97572.44;;;26.04;100.00
13661;BME280;6903;49.480;11.102;2023-07-30T07:47:15;97566.34;;;26.09;100.00
13661;BME280;6903;49.480;11.102;2023-07-30T07:49:41;97565.81;;;26.18;100.00
13661;BME280;6903;49.480;11.102;2023-07-30T07:52:07;97570.06;;;26.26;100.00
13661;BME280;6903;49.480;11.102;2023-07-30T07:54:34;97572.28;;;26.29;100.00
13661;BME280;6903;49.480;11.102;2023-07-30T07:56:59;97574.91;;;26.35;100.00
13661;BME280;6903;49.480;11.102;2023-07-30T07:59:24;97576.47;;;26.43;100.00
13661;BME280;6903;49.480;11.102;2023-07-30T08:01:50;97577.19;;;26.50;100.00
13661;BME280;6903;49.480;11.102;2023-07-30T08:04:15;97576.00;;;26.46;100.00
13661;BME280;6903;49.480;11.102;2023-07-30T08:06:40;97577.75;;;26.40;100.00
13661;BME280;6903;49.480;11.102;2023-07-30T08:09:06;97567.88;;;26.46;100.00
13661;BME280;6903;49.480;11.102;2023-07-30T08:11:31;97572.88;;;26.61;100.00
13661;BME280;6903;49.480;11.102;2023-07-30T08:13:56;97567.38;;;26.67;100.00
13661;BME280;6903;49.480;11.102;2023-07-30T08:16:22;97571.63;;;26.75;100.00
13661;BME280;6903;49.480;11.102;2023-07-30T08:18:47;97574.25;;;26.93;100.00
13661;BME280;6903;49.480;11.102;2023-07-30T08:21:13;97567.53;;;26.95;100.00
13661;BME280;6903;49.480;11.102;2023-07-30T08:23:38;97569.88;;;26.92;100.00
13661;BME280;6903;49.480;11.102;2023-07-30T08:26:03;97574.00;;;26.94;100.00
13661;BME280;6903;49.480;11.102;2023-07-30T08:28:29;97577.31;;;26.96;100.00
13661;BME280;6903;49.480;11.102;2023-07-30T08:31:02;97572.13;;;26.95;100.00
13661;BME280;6903;49.480;11.102;2023-07-30T08:33:28;97564.94;;;26.89;100.00
13661;BME280;6903;49.480;11.102;2023-07-30T08:35:58;97558.13;;;27.09;100.00
13661;BME280;6903;49.480;11.102;2023-07-30T08:38:24;97560.28;;;27.30;100.00
13661;BME280;6903;49.480;11.102;2023-07-30T08:40:50;97561.41;;;27.57;100.00
13661;BME280;6903;49.480;11.102;2023-07-30T08:43:16;97563.34;;;27.85;100.00
13661;BME280;6903;49.480;11.102;2023-07-30T08:45:41;97566.09;;;28.13;100.00
13661;BME280;6903;49.480;11.102;2023-07-30T08:48:07;97565.91;;;28.31;100.00
13661;BME280;6903;49.480;11.102;2023-07-30T08:50:33;97573.94;;;28.26;100.00
13661;BME280;6903;49.480;11.102;2023-07-30T08:53:02;97574.03;;;28.31;100.00
13661;BME280;6903;49.480;11.102;2023-07-30T08:55:28;97576.59;;;28.49;100.00
13661;BME280;6903;49.480;11.102;2023-07-30T08:57:55;97566.13;;;28.58;100.00
13661;BME280;6903;49.480;11.102;2023-07-30T09:00:24;97569.88;;;28.68;100.00
13661;BME280;6903;49.480;11.102;2023-07-30T09:02:52;97571.09;;;28.77;100.00
13661;BME280;6903;49.480;11.102;2023-07-30T09:05:19;97571.59;;;28.91;100.00
13661;BME280;6903;49.480;11.102;2023-07-30T09:07:45;97576.25;;;29.07;100.00
13661;BME280;6903;49.480;11.102;2023-07-30T09:10:10;97570.28;;;29.27;100.00
13661;BME280;6903;49.480;11.102;2023-07-30T09:12:36;97572.53;;;29.51;100.00
13661;BME280;6903;49.480;11.102;2023-07-30T09:15:02;97572.34;;;29.58;100.00
13661;BME280;6903;49.480;11.102;2023-07-30T09:17:30;97563.66;;;29.56;100.00
13661;BME280;6903;49.480;11.102;2023-07-30T09:19:55;97576.66;;;29.70;100.00
13661;BME280;6903;49.480;11.102;2023-07-30T09:22:27;97567.34;;;29.66;100.00
13661;BME280;6903;49.480;11.102;2023-07-30T09:24:54;97569.75;;;29.84;99.64
13661;BME280;6903;49.480;11.102;2023-07-30T09:27:21;97580.88;;;30.04;98.87
13661;BME280;6903;49.480;11.102;2023-07-30T09:30:01;97565.69;;;30.08;97.86
13661;BME280;6903;49.480;11.102;2023-07-30T09:32:34;97562.00;;;30.41;94.63
13661;BME280;6903;49.480;11.102;2023-07-30T09:35:06;97556.84;;;30.71;88.80
13661;BME280;6903;49.480;11.102;2023-07-30T09:37:36;97562.19;;;30.88;82.84
13661;BME280;6903;49.480;11.102;2023-07-30T09:40:02;97567.13;;;30.91;83.46
13661;BME280;6903;49.480;11.102;2023-07-30T09:42:27;97564.28;;;31.12;81.55
13661;BME280;6903;49.480;11.102;2023-07-30T09:44:53;97565.06;;;31.39;75.94
13661;BME280;6903;49.480;11.102;2023-07-30T09:47:18;97561.31;;;31.50;73.67
13661;BME280;6903;49.480;11.102;2023-07-30T09:49:44;97559.78;;;31.74;72.66
13661;BME280;6903;49.480;11.102;2023-07-30T09:52:10;97558.72;;;31.81;70.72
13661;BME280;6903;49.480;11.102;2023-07-30T09:54:36;97560.22;;;32.08;69.27
13661;BME280;6903;49.480;11.102;2023-07-30T09:57:04;97551.53;;;32.21;66.34
13661;BME280;6903;49.480;11.102;2023-07-30T09:59:29;97554.25;;;32.16;64.87
13661;BME280;6903;49.480;11.102;2023-07-30T10:01:56;97557.06;;;31.74;64.40
13661;BME280;6903;49.480;11.102;2023-07-30T10:04:22;97553.41;;;32.01;68.03
13661;BME280;6903;49.480;11.102;2023-07-30T10:06:52;97552.91;;;32.29;66.29
13661;BME280;6903;49.480;11.102;2023-07-30T10:09:20;97551.66;;;32.61;64.47
13661;BME280;6903;49.480;11.102;2023-07-30T10:11:49;97550.84;;;32.86;64.61
13661;BME280;6903;49.480;11.102;2023-07-30T10:14:17;97547.06;;;33.02;63.51
13661;BME280;6903;49.480;11.102;2023-07-30T10:16:54;97544.03;;;33.09;63.18
13661;BME280;6903;49.480;11.102;2023-07-30T10:19:24;97537.97;;;32.86;62.33
13661;BME280;6903;49.480;11.102;2023-07-30T10:21:49;97542.34;;;32.42;63.18
13661;BME280;6903;49.480;11.102;2023-07-30T10:24:15;97557.56;;;32.23;69.15
13661;BME280;6903;49.480;11.102;2023-07-30T10:26:40;97566.31;;;31.73;85.56
13661;BME280;6903;49.480;11.102;2023-07-30T10:29:14;97563.69;;;30.47;100.00
13661;BME280;6903;49.480;11.102;2023-07-30T10:31:48;97571.78;;;28.84;100.00
13661;BME280;6903;49.480;11.102;2023-07-30T10:34:14;97582.72;;;27.19;100.00
13661;BME280;6903;49.480;11.102;2023-07-30T10:36:44;97599.69;;;25.85;100.00
13661;BME280;6903;49.480;11.102;2023-07-30T10:39:21;97605.38;;;24.67;100.00
13661;BME280;6903;49.480;11.102;2023-07-30T10:41:53;97607.28;;;23.71;100.00
13661;BME280;6903;49.480;11.102;2023-07-30T10:44:29;97608.84;;;23.09;100.00
13661;BME280;6903;49.480;11.102;2023-07-30T10:46:57;97618.53;;;22.51;100.00
13661;BME280;6903;49.480;11.102;2023-07-30T10:49:22;97643.88;;;22.16;100.00
13661;BME280;6903;49.480;11.102;2023-07-30T10:51:48;97659.34;;;21.73;100.00
13661;BME280;6903;49.480;11.102;2023-07-30T10:54:13;97656.78;;;21.25;100.00
13661;BME280;6903;49.480;11.102;2023-07-30T10:56:41;97652.72;;;20.86;100.00
13661;BME280;6903;49.480;11.102;2023-07-30T10:59:06;97661.47;;;20.74;100.00
13661;BME280;6903;49.480;11.102;2023-07-30T11:01:39;97657.59;;;20.97;100.00
13661;BME280;6903;49.480;11.102;2023-07-30T11:04:13;97662.47;;;21.43;100.00
13661;BME280;6903;49.480;11.102;2023-07-30T11:06:38;97658.44;;;21.87;100.00
13661;BME280;6903;49.480;11.102;2023-07-30T11:09:05;97650.06;;;22.23;100.00
13661;BME280;6903;49.480;11.102;2023-07-30T11:11:30;97645.88;;;22.61;100.00
13661;BME280;6903;49.480;11.102;2023-07-30T11:13:56;97645.28;;;22.85;100.00
13661;BME280;6903;49.480;11.102;2023-07-30T11:16:22;97631.41;;;23.08;100.00
13661;BME280;6903;49.480;11.102;2023-07-30T11:18:47;97633.88;;;23.48;100.00
13661;BME280;6903;49.480;11.102;2023-07-30T11:21:15;97641.25;;;23.79;100.00
13661;BME280;6903;49.480;11.102;2023-07-30T11:23:42;97633.09;;;23.92;100.00
13661;BME280;6903;49.480;11.102;2023-07-30T11:26:09;97638.53;;;23.86;100.00
13661;BME280;6903;49.480;11.102;2023-07-30T11:28:39;97638.16;;;23.75;100.00
13661;BME280;6903;49.480;11.102;2023-07-30T11:31:15;97638.56;;;23.72;100.00
13661;BME280;6903;49.480;11.102;2023-07-30T11:33:44;97628.19;;;23.69;100.00
13661;BME280;6903;49.480;11.102;2023-07-30T11:36:12;97629.88;;;23.70;100.00
13661;BME280;6903;49.480;11.102;2023-07-30T11:38:39;97626.97;;;23.72;100.00
13661;BME280;6903;49.480;11.102;2023-07-30T11:41:05;97622.00;;;23.75;100.00
13661;BME280;6903;49.480;11.102;2023-07-30T11:43:31;97623.59;;;23.90;100.00
13661;BME280;6903;49.480;11.102;2023-07-30T11:46:11;97620.81;;;24.16;100.00
13661;BME280;6903;49.480;11.102;2023-07-30T11:48:39;97624.13;;;24.49;100.00
13661;BME280;6903;49.480;11.102;2023-07-30T11:51:05;97621.56;;;24.67;100.00
13661;BME280;6903;49.480;11.102;2023-07-30T11:53:47;97620.09;;;24.64;100.00
13661;BME280;6903;49.480;11.102;2023-07-30T11:56:19;97619.53;;;24.56;100.00
13661;BME280;6903;49.480;11.102;2023-07-30T11:58:46;97614.50;;;24.66;100.00
13661;BME280;6903;49.480;11.102;2023-07-30T12:01:12;97616.72;;;24.75;100.00
13661;BME280;6903;49.480;11.102;2023-07-30T12:03:37;97616.09;;;25.04;100.00
13661;BME280;6903;49.480;11.102;2023-07-30T12:06:06;97616.78;;;25.43;100.00
13661;BME280;6903;49.480;11.102;2023-07-30T12:08:33;97621.56;;;26.01;100.00
13661;BME280;6903;49.480;11.102;2023-07-30T12:11:02;97610.31;;;26.45;100.00
13661;BME280;6903;49.480;11.102;2023-07-30T12:13:28;97608.34;;;26.71;100.00
13661;BME280;6903;49.480;11.102;2023-07-30T12:15:54;97599.50;;;26.75;100.00
13661;BME280;6903;49.480;11.102;2023-07-30T12:18:21;97597.97;;;26.79;100.00
13661;BME280;6903;49.480;11.102;2023-07-30T12:20:47;97599.63;;;26.92;100.00
13661;BME280;6903;49.480;11.102;2023-07-30T12:23:16;97588.69;;;26.98;100.00
13661;BME280;6903;49.480;11.102;2023-07-30T12:25:41;97601.53;;;27.14;100.00
13661;BME280;6903;49.480;11.102;2023-07-30T12:28:07;97594.50;;;27.25;100.00
13661;BME280;6903;49.480;11.102;2023-07-30T12:30:32;97594.50;;;27.59;100.00
13661;BME280;6903;49.480;11.102;2023-07-30T12:32:58;97585.41;;;27.77;100.00
13661;BME280;6903;49.480;11.102;2023-07-30T12:35:23;97593.53;;;27.89;100.00
13661;BME280;6903;49.480;11.102;2023-07-30T12:37:49;97592.81;;;27.93;100.00
13661;BME280;6903;49.480;11.102;2023-07-30T12:40:14;97592.88;;;28.10;100.00
13661;BME280;6903;49.480;11.102;2023-07-30T12:42:40;97584.69;;;28.21;100.00
13661;BME280;6903;49.480;11.102;2023-07-30T12:45:06;97579.06;;;28.39;100.00
13661;BME280;6903;49.480;11.102;2023-07-30T12:47:32;97585.88;;;28.25;100.00